sensor_id;sensor_type;location;lat;lon;timestamp;pressure;altitude;pressure_sealevel;temperature;humidity
12879;BME280;20617;49.476;10.986;2023-03-14T00:00:38;96715.00;;;9.75;100.00
12879;BME280;20617;49.476;10.986;2023-03-14T00:02:43;96725.38;;;9.75;100.00
12879;BME280;20617;49.476;10.986;2023-03-14T00:04:48;96719.16;;;9.78;100.00
12879;BME280;20617;49.476;10.986;2023-03-14T00:06:53;96715.06;;;9.74;100.00
12879;BME280;20617;49.476;10.986;2023-03-14T00:08:57;96716.44;;;9.80;100.00
12879;BME280;20617;49.476;10.986;2023-03-14T00:11:07;96713.78;;;9.81;100.00
12879;BME280;20617;49.476;10.986;2023-03-14T00:13:13;96709.22;;;9.85;100.00
12879;BME280;20617;49.476;10.986;2023-03-14T00:15:20;96717.13;;;9.83;100.00
12879;BME280;20617;49.476;10.986;2023-03-14T00:17:25;96710.34;;;9.81;100.00
12879;BME280;20617;49.476;10.986;2023-03-14T00:19:30;96723.16;;;9.84;100.00
12879;BME280;20617;49.476;10.986;2023-03-14T00:21:35;96711.25;;;9.80;100.00
12879;BME280;20617;49.476;10.986;2023-03-14T00:23:41;96716.25;;;9.83;100.00
12879;BME280;20617;49.476;10.986;2023-03-14T00:25:46;96721.38;;;9.84;100.00
12879;BME280;20617;49.476;10.986;2023-03-14T00:27:51;96720.44;;;9.85;100.00
12879;BME280;20617;49.476;10.986;2023-03-14T00:29:56;96723.56;;;9.90;100.00
12879;BME280;20617;49.476;10.986;2023-03-14T00:32:04;96725.22;;;9.91;100.00
12879;BME280;20617;49.476;10.986;2023-03-14T00:34:09;96730.97;;;9.96;100.00
12879;BME280;20617;49.476;10.986;2023-03-14T00:36:16;96743.03;;;9.97;100.00
12879;BME280;20617;49.476;10.986;2023-03-14T00:38:22;96742.13;;;9.98;100.00
12879;BME280;20617;49.476;10.986;2023-03-14T00:40:28;96734.41;;;9.97;100.00
12879;BME280;20617;49.476;10.986;2023-03-14T00:42:34;96723.28;;;9.95;100.00
12879;BME280;20617;49.476;10.986;2023-03-14T00:44:39;96742.19;;;9.97;100.00
12879;BME280;20617;49.476;10.986;2023-03-14T00:46:44;96754.59;;;10.06;100.00
12879;BME280;20617;49.476;10.986;2023-03-14T00:48:51;96735.78;;;10.03;100.00
12879;BME280;20617;49.476;10.986;2023-03-14T00:50:57;96730.69;;;10.01;100.00
12879;BME280;20617;49.476;10.986;2023-03-14T00:53:02;96721.00;;;10.03;100.00
12879;BME280;20617;49.476;10.986;2023-03-14T00:55:08;96696.97;;;10.00;100.00
12879;BME280;20617;49.476;10.986;2023-03-14T00:57:13;96698.69;;;10.01;100.00
12879;BME280;20617;49.476;10.986;2023-03-14T00:59:18;96698.13;;;9.95;100.00
12879;BME280;20617;49.476;10.986;2023-03-14T01:01:23;96710.09;;;9.98;100.00
12879;BME280;20617;49.476;10.986;2023-03-14T01:03:28;96709.06;;;10.01;100.00
12879;BME280;20617;49.476;10.986;2023-03-14T01:05:38;96691.03;;;9.97;100.00
12879;BME280;20617;49.476;10.986;2023-03-14T01:07:43;96678.91;;;9.98;100.00
12879;BME280;20617;49.476;10.986;2023-03-14T01:09:51;96666.53;;;10.02;100.00
12879;BME280;20617;49.476;10.986;2023-03-14T01:11:56;96659.56;;;10.02;100.00
12879;BME280;20617;49.476;10.986;2023-03-14T01:14:02;96637.94;;;10.02;100.00
12879;BME280;20617;49.476;10.986;2023-03-14T01:16:10;96649.50;;;10.10;100.00
12879;BME280;20617;49.476;10.986;2023-03-14T01:18:15;96642.94;;;10.17;100.00
12879;BME280;20617;49.476;10.986;2023-03-14T01:20:20;96624.16;;;10.27;100.00
12879;BME280;20617;49.476;10.986;2023-03-14T01:22:27;96623.97;;;10.30;100.00
12879;BME280;20617;49.476;10.986;2023-03-14T01:24:32;96643.94;;;10.29;100.00
12879;BME280;20617;49.476;10.986;2023-03-14T01:26:37;96622.22;;;10.30;100.00
12879;BME280;20617;49.476;10.986;2023-03-14T01:28:43;96592.84;;;10.28;100.00
12879;BME280;20617;49.476;10.986;2023-03-14T01:30:48;96582.16;;;10.33;100.00
12879;BME280;20617;49.476;10.986;2023-03-14T01:32:53;96582.03;;;10.34;100.00
12879;BME280;20617;49.476;10.986;2023-03-14T01:34:58;96584.34;;;10.39;100.00
12879;BME280;20617;49.476;10.986;2023-03-14T01:37:03;96587.66;;;10.41;100.00
12879;BME280;20617;49.476;10.986;2023-03-14T01:39:13;96583.38;;;10.40;100.00
12879;BME280;20617;49.476;10.986;2023-03-14T01:41:20;96591.41;;;10.37;100.00
12879;BME280;20617;49.476;10.986;2023-03-14T01:43:31;96583.50;;;10.38;100.00
12879;BME280;20617;49.476;10.986;2023-03-14T01:48:15;96588.06;;;10.35;100.00
12879;BME280;20617;49.476;10.986;2023-03-14T01:50:20;96597.84;;;10.31;100.00
12879;BME280;20617;49.476;10.986;2023-03-14T01:52:28;96606.69;;;10.29;100.00
12879;BME280;20617;49.476;10.986;2023-03-14T01:54:40;96616.69;;;10.35;100.00
12879;BME280;20617;49.476;10.986;2023-03-14T01:56:49;96618.03;;;10.40;100.00
12879;BME280;20617;49.476;10.986;2023-03-14T01:58:54;96633.22;;;10.47;100.00
12879;BME280;20617;49.476;10.986;2023-03-14T02:01:01;96630.63;;;10.47;100.00
12879;BME280;20617;49.476;10.986;2023-03-14T02:03:11;96628.34;;;10.55;100.00
12879;BME280;20617;49.476;10.986;2023-03-14T02:05:23;96629.91;;;10.57;100.00
12879;BME280;20617;49.476;10.986;2023-03-14T02:07:37;96626.25;;;10.60;100.00
12879;BME280;20617;49.476;10.986;2023-03-14T02:09:58;96633.94;;;10.61;100.00
12879;BME280;20617;49.476;10.986;2023-03-14T02:12:06;96642.50;;;10.63;100.00
12879;BME280;20617;49.476;10.986;2023-03-14T02:14:28;96616.38;;;10.65;100.00
12879;BME280;20617;49.476;10.986;2023-03-14T02:16:54;96618.84;;;10.67;100.00
12879;BME280;20617;49.476;10.986;2023-03-14T02:19:14;96604.28;;;10.64;100.00
12879;BME280;20617;49.476;10.986;2023-03-14T02:21:49;96603.25;;;10.67;100.00
12879;BME280;20617;49.476;10.986;2023-03-14T02:24:09;96600.75;;;10.65;100.00
12879;BME280;20617;49.476;10.986;2023-03-14T02:26:28;96595.56;;;10.65;100.00
12879;BME280;20617;49.476;10.986;2023-03-14T02:28:39;96577.97;;;10.69;100.00
12879;BME280;20617;49.476;10.986;2023-03-14T02:30:44;96571.38;;;10.76;100.00
12879;BME280;20617;49.476;10.986;2023-03-14T02:32:49;96568.28;;;10.71;100.00
12879;BME280;20617;49.476;10.986;2023-03-14T02:34:58;96574.31;;;10.71;100.00
12879;BME280;20617;49.476;10.986;2023-03-14T02:37:04;96580.75;;;10.78;100.00
12879;BME280;20617;49.476;10.986;2023-03-14T02:39:14;96562.31;;;10.81;100.00
12879;BME280;20617;49.476;10.986;2023-03-14T02:41:21;96559.81;;;10.80;100.00
12879;BME280;20617;49.476;10.986;2023-03-14T02:43:34;96551.91;;;10.81;100.00
12879;BME280;20617;49.476;10.986;2023-03-14T02:45:47;96547.72;;;10.79;100.00
12879;BME280;20617;49.476;10.986;2023-03-14T02:47:59;96542.66;;;10.77;100.00
12879;BME280;20617;49.476;10.986;2023-03-14T02:50:12;96534.03;;;10.77;100.00
12879;BME280;20617;49.476;10.986;2023-03-14T02:52:17;96544.53;;;10.75;100.00
12879;BME280;20617;49.476;10.986;2023-03-14T02:54:22;96535.78;;;10.76;100.00
12879;BME280;20617;49.476;10.986;2023-03-14T02:56:28;96528.16;;;10.73;100.00
12879;BME280;20617;49.476;10.986;2023-03-14T02:58:36;96525.69;;;10.72;100.00
12879;BME280;20617;49.476;10.986;2023-03-14T03:00:59;96518.84;;;10.71;100.00
12879;BME280;20617;49.476;10.986;2023-03-14T03:03:04;96522.34;;;10.70;100.00
12879;BME280;20617;49.476;10.986;2023-03-14T03:05:09;96527.56;;;10.70;100.00
12879;BME280;20617;49.476;10.986;2023-03-14T03:07:14;96526.66;;;10.71;100.00
12879;BME280;20617;49.476;10.986;2023-03-14T03:09:19;96531.13;;;10.69;100.00
12879;BME280;20617;49.476;10.986;2023-03-14T03:11:26;96540.56;;;10.70;100.00
12879;BME280;20617;49.476;10.986;2023-03-14T03:13:31;96538.09;;;10.68;100.00
12879;BME280;20617;49.476;10.986;2023-03-14T03:15:38;96532.91;;;10.68;100.00
12879;BME280;20617;49.476;10.986;2023-03-14T03:17:46;96530.59;;;10.63;100.00
12879;BME280;20617;49.476;10.986;2023-03-14T03:19:51;96523.97;;;10.59;100.00
12879;BME280;20617;49.476;10.986;2023-03-14T03:21:55;96527.47;;;10.58;100.00
12879;BME280;20617;49.476;10.986;2023-03-14T03:24:00;96526.66;;;10.58;100.00
12879;BME280;20617;49.476;10.986;2023-03-14T03:26:09;96520.53;;;10.59;100.00
12879;BME280;20617;49.476;10.986;2023-03-14T03:28:15;96522.19;;;10.60;100.00
12879;BME280;20617;49.476;10.986;2023-03-14T03:30:20;96508.44;;;10.58;100.00
12879;BME280;20617;49.476;10.986;2023-03-14T03:32:25;96502.31;;;10.59;100.00
12879;BME280;20617;49.476;10.986;2023-03-14T03:34:33;96499.19;;;10.54;100.00
12879;BME280;20617;49.476;10.986;2023-03-14T03:36:38;96502.63;;;10.54;100.00
12879;BME280;20617;49.476;10.986;2023-03-14T03:38:43;96508.13;;;10.50;100.00
12879;BME280;20617;49.476;10.986;2023-03-14T03:40:48;96525.31;;;10.52;100.00
12879;BME280;20617;49.476;10.986;2023-03-14T03:42:54;96523.75;;;10.50;100.00
12879;BME280;20617;49.476;10.986;2023-03-14T03:44:59;96528.84;;;10.51;100.00
12879;BME280;20617;49.476;10.986;2023-03-14T03:47:05;96512.63;;;10.48;100.00
12879;BME280;20617;49.476;10.986;2023-03-14T03:49:10;96518.66;;;10.48;100.00
12879;BME280;20617;49.476;10.986;2023-03-14T03:51:17;96517.00;;;10.47;100.00
12879;BME280;20617;49.476;10.986;2023-03-14T03:53:22;96513.69;;;10.45;100.00
12879;BME280;20617;49.476;10.986;2023-03-14T03:55:36;96512.94;;;10.43;100.00
12879;BME280;20617;49.476;10.986;2023-03-14T03:57:41;96500.06;;;10.41;100.00
12879;BME280;20617;49.476;10.986;2023-03-14T03:59:46;96502.97;;;10.37;100.00
12879;BME280;20617;49.476;10.986;2023-03-14T04:01:51;96497.78;;;10.37;100.00
12879;BME280;20617;49.476;10.986;2023-03-14T04:03:56;96488.31;;;10.36;100.00
12879;BME280;20617;49.476;10.986;2023-03-14T04:06:03;96486.63;;;10.35;100.00
12879;BME280;20617;49.476;10.986;2023-03-14T04:08:14;96483.00;;;10.37;100.00
12879;BME280;20617;49.476;10.986;2023-03-14T04:10:19;96479.66;;;10.35;100.00
12879;BME280;20617;49.476;10.986;2023-03-14T04:12:44;96469.25;;;10.35;100.00
12879;BME280;20617;49.476;10.986;2023-03-14T04:14:53;96465.81;;;10.35;100.00
12879;BME280;20617;49.476;10.986;2023-03-14T04:16:58;96457.19;;;10.34;100.00
12879;BME280;20617;49.476;10.986;2023-03-14T04:19:04;96448.66;;;10.32;100.00
12879;BME280;20617;49.476;10.986;2023-03-14T04:21:10;96459.41;;;10.28;100.00
12879;BME280;20617;49.476;10.986;2023-03-14T04:23:29;96456.84;;;10.26;100.00
12879;BME280;20617;49.476;10.986;2023-03-14T04:25:35;96450.78;;;10.27;100.00
12879;BME280;20617;49.476;10.986;2023-03-14T04:27:40;96445.44;;;10.29;100.00
12879;BME280;20617;49.476;10.986;2023-03-14T04:29:52;96437.66;;;10.29;100.00
12879;BME280;20617;49.476;10.986;2023-03-14T04:32:15;96436.00;;;10.28;100.00
12879;BME280;20617;49.476;10.986;2023-03-14T04:34:20;96432.56;;;10.27;100.00
12879;BME280;20617;49.476;10.986;2023-03-14T04:36:28;96441.25;;;10.26;100.00
12879;BME280;20617;49.476;10.986;2023-03-14T04:38:40;96439.59;;;10.25;100.00
12879;BME280;20617;49.476;10.986;2023-03-14T04:40:46;96446.47;;;10.26;100.00
12879;BME280;20617;49.476;10.986;2023-03-14T04:42:53;96454.19;;;10.28;100.00
12879;BME280;20617;49.476;10.986;2023-03-14T04:44:58;96449.81;;;10.28;100.00
12879;BME280;20617;49.476;10.986;2023-03-14T04:47:05;96442.03;;;10.28;100.00
12879;BME280;20617;49.476;10.986;2023-03-14T04:49:12;96456.69;;;10.29;100.00
12879;BME280;20617;49.476;10.986;2023-03-14T04:51:17;96448.22;;;10.26;100.00
12879;BME280;20617;49.476;10.986;2023-03-14T04:53:24;96443.38;;;10.21;100.00
12879;BME280;20617;49.476;10.986;2023-03-14T04:55:36;96452.22;;;10.18;100.00
12879;BME280;20617;49.476;10.986;2023-03-14T04:57:41;96458.44;;;10.16;100.00
12879;BME280;20617;49.476;10.986;2023-03-14T04:59:46;96466.56;;;10.11;100.00
12879;BME280;20617;49.476;10.986;2023-03-14T05:02:17;96459.78;;;10.09;100.00
12879;BME280;20617;49.476;10.986;2023-03-14T05:04:48;96463.44;;;10.06;100.00
12879;BME280;20617;49.476;10.986;2023-03-14T05:07:11;96468.03;;;10.03;100.00
12879;BME280;20617;49.476;10.986;2023-03-14T05:09:37;96475.94;;;10.01;100.00
12879;BME280;20617;49.476;10.986;2023-03-14T05:12:03;96467.19;;;10.02;100.00
12879;BME280;20617;49.476;10.986;2023-03-14T05:14:17;96460.34;;;10.01;100.00
12879;BME280;20617;49.476;10.986;2023-03-14T05:16:36;96459.59;;;9.99;100.00
12879;BME280;20617;49.476;10.986;2023-03-14T05:19:19;96451.81;;;9.99;100.00
12879;BME280;20617;49.476;10.986;2023-03-14T05:21:42;96455.34;;;9.98;100.00
12879;BME280;20617;49.476;10.986;2023-03-14T05:24:10;96446.59;;;9.99;100.00
12879;BME280;20617;49.476;10.986;2023-03-14T05:26:33;96450.16;;;9.98;100.00
12879;BME280;20617;49.476;10.986;2023-03-14T05:29:01;96442.44;;;9.96;100.00
12879;BME280;20617;49.476;10.986;2023-03-14T05:31:20;96441.84;;;9.93;100.00
12879;BME280;20617;49.476;10.986;2023-03-14T05:33:44;96436.50;;;9.94;100.00
12879;BME280;20617;49.476;10.986;2023-03-14T05:36:13;96431.66;;;9.90;100.00
12879;BME280;20617;49.476;10.986;2023-03-14T05:38:48;96432.56;;;9.89;100.00
12879;BME280;20617;49.476;10.986;2023-03-14T05:41:13;96420.00;;;9.83;100.00
12879;BME280;20617;49.476;10.986;2023-03-14T05:43:37;96417.31;;;9.84;100.00
12879;BME280;20617;49.476;10.986;2023-03-14T05:46:05;96411.28;;;9.84;100.00
12879;BME280;20617;49.476;10.986;2023-03-14T05:48:41;96404.41;;;9.83;100.00
12879;BME280;20617;49.476;10.986;2023-03-14T05:51:06;96404.19;;;9.86;100.00
12879;BME280;20617;49.476;10.986;2023-03-14T05:53:30;96406.09;;;9.84;100.00
12879;BME280;20617;49.476;10.986;2023-03-14T05:55:55;96412.00;;;9.86;100.00
12879;BME280;20617;49.476;10.986;2023-03-14T05:58:20;96410.34;;;9.85;100.00
12879;BME280;20617;49.476;10.986;2023-03-14T06:00:43;96410.25;;;9.86;100.00
12879;BME280;20617;49.476;10.986;2023-03-14T06:03:16;96400.69;;;9.87;100.00
12879;BME280;20617;49.476;10.986;2023-03-14T06:05:22;96406.56;;;9.89;100.00
12879;BME280;20617;49.476;10.986;2023-03-14T06:07:32;96403.97;;;9.89;100.00
12879;BME280;20617;49.476;10.986;2023-03-14T06:09:39;96403.88;;;9.90;100.00
12879;BME280;20617;49.476;10.986;2023-03-14T06:11:44;96404.63;;;9.92;100.00
12879;BME280;20617;49.476;10.986;2023-03-14T06:13:49;96406.28;;;9.93;100.00
12879;BME280;20617;49.476;10.986;2023-03-14T06:15:55;96413.75;;;9.98;100.00
12879;BME280;20617;49.476;10.986;2023-03-14T06:18:00;96410.00;;;10.02;100.00
12879;BME280;20617;49.476;10.986;2023-03-14T06:20:09;96415.94;;;10.04;100.00
12879;BME280;20617;49.476;10.986;2023-03-14T06:22:15;96406.16;;;10.08;100.00
12879;BME280;20617;49.476;10.986;2023-03-14T06:24:21;96404.38;;;10.08;100.00
12879;BME280;20617;49.476;10.986;2023-03-14T06:26:27;96398.97;;;10.11;100.00
12879;BME280;20617;49.476;10.986;2023-03-14T06:28:32;96404.16;;;10.11;100.00
12879;BME280;20617;49.476;10.986;2023-03-14T06:30:38;96404.97;;;10.12;100.00
12879;BME280;20617;49.476;10.986;2023-03-14T06:32:45;96409.47;;;10.10;100.00
12879;BME280;20617;49.476;10.986;2023-03-14T06:34:51;96403.03;;;10.15;100.00
12879;BME280;20617;49.476;10.986;2023-03-14T06:36:59;96400.81;;;10.22;100.00
12879;BME280;20617;49.476;10.986;2023-03-14T06:39:04;96393.09;;;10.20;100.00
12879;BME280;20617;49.476;10.986;2023-03-14T06:41:12;96398.09;;;10.24;100.00
12879;BME280;20617;49.476;10.986;2023-03-14T06:43:18;96401.38;;;10.27;100.00
12879;BME280;20617;49.476;10.986;2023-03-14T06:45:23;96403.75;;;10.30;100.00
12879;BME280;20617;49.476;10.986;2023-03-14T06:47:30;96395.72;;;10.33;100.00
12879;BME280;20617;49.476;10.986;2023-03-14T06:49:35;96386.25;;;10.32;100.00
12879;BME280;20617;49.476;10.986;2023-03-14T06:51:39;96396.22;;;10.38;100.00
12879;BME280;20617;49.476;10.986;2023-03-14T06:53:48;96401.09;;;10.43;100.00
12879;BME280;20617;49.476;10.986;2023-03-14T06:55:56;96406.06;;;10.46;100.00
12879;BME280;20617;49.476;10.986;2023-03-14T06:58:03;96412.75;;;10.50;100.00
12879;BME280;20617;49.476;10.986;2023-03-14T07:00:16;96415.00;;;10.55;100.00
12879;BME280;20617;49.476;10.986;2023-03-14T07:02:22;96418.94;;;10.60;100.00
12879;BME280;20617;49.476;10.986;2023-03-14T07:04:49;96418.72;;;10.63;100.00
12879;BME280;20617;49.476;10.986;2023-03-14T07:06:55;96407.84;;;10.70;100.00
12879;BME280;20617;49.476;10.986;2023-03-14T07:09:03;96413.56;;;10.75;100.00
12879;BME280;20617;49.476;10.986;2023-03-14T07:11:11;96400.34;;;10.78;100.00
12879;BME280;20617;49.476;10.986;2023-03-14T07:13:17;96403.66;;;10.80;100.00
12879;BME280;20617;49.476;10.986;2023-03-14T07:15:33;96404.34;;;10.82;100.00
12879;BME280;20617;49.476;10.986;2023-03-14T07:17:42;96389.81;;;10.79;100.00
12879;BME280;20617;49.476;10.986;2023-03-14T07:19:47;96391.56;;;10.79;100.00
12879;BME280;20617;49.476;10.986;2023-03-14T07:21:53;96393.03;;;10.83;100.00
12879;BME280;20617;49.476;10.986;2023-03-14T07:24:04;96392.56;;;10.89;100.00
12879;BME280;20617;49.476;10.986;2023-03-14T07:26:09;96395.78;;;10.93;100.00
12879;BME280;20617;49.476;10.986;2023-03-14T07:28:19;96393.53;;;10.99;100.00
12879;BME280;20617;49.476;10.986;2023-03-14T07:30:31;96380.28;;;11.02;100.00
12879;BME280;20617;49.476;10.986;2023-03-14T07:32:39;96379.88;;;11.08;100.00
12879;BME280;20617;49.476;10.986;2023-03-14T07:34:45;96381.06;;;11.16;100.00
12879;BME280;20617;49.476;10.986;2023-03-14T07:36:53;96379.41;;;11.15;100.00
12879;BME280;20617;49.476;10.986;2023-03-14T07:38:58;96373.47;;;11.13;100.00
12879;BME280;20617;49.476;10.986;2023-03-14T07:41:25;96381.06;;;11.16;100.00
12879;BME280;20617;49.476;10.986;2023-03-14T07:44:09;96380.97;;;11.17;100.00
12879;BME280;20617;49.476;10.986;2023-03-14T07:46:15;96370.53;;;11.17;100.00
12879;BME280;20617;49.476;10.986;2023-03-14T07:48:20;96374.56;;;11.21;100.00
12879;BME280;20617;49.476;10.986;2023-03-14T07:50:26;96369.72;;;11.28;100.00
12879;BME280;20617;49.476;10.986;2023-03-14T07:52:32;96369.25;;;11.34;100.00
12879;BME280;20617;49.476;10.986;2023-03-14T07:54:36;96369.75;;;11.39;100.00
12879;BME280;20617;49.476;10.986;2023-03-14T07:56:44;96368.34;;;11.35;100.00
12879;BME280;20617;49.476;10.986;2023-03-14T07:58:50;96363.69;;;11.27;100.00
12879;BME280;20617;49.476;10.986;2023-03-14T08:00:54;96376.13;;;11.24;100.00
12879;BME280;20617;49.476;10.986;2023-03-14T08:02:59;96378.81;;;11.22;100.00
12879;BME280;20617;49.476;10.986;2023-03-14T08:05:05;96385.47;;;11.26;100.00
12879;BME280;20617;49.476;10.986;2023-03-14T08:07:11;96386.06;;;11.30;100.00
12879;BME280;20617;49.476;10.986;2023-03-14T08:09:15;96376.59;;;11.29;100.00
12879;BME280;20617;49.476;10.986;2023-03-14T08:11:20;96382.75;;;11.28;100.00
12879;BME280;20617;49.476;10.986;2023-03-14T08:13:28;96379.22;;;11.29;100.00
12879;BME280;20617;49.476;10.986;2023-03-14T08:15:33;96388.22;;;11.36;100.00
12879;BME280;20617;49.476;10.986;2023-03-14T08:17:38;96385.03;;;11.44;100.00
12879;BME280;20617;49.476;10.986;2023-03-14T08:19:43;96369.78;;;11.50;100.00
12879;BME280;20617;49.476;10.986;2023-03-14T08:21:48;96367.50;;;11.57;100.00
12879;BME280;20617;49.476;10.986;2023-03-14T08:23:53;96351.06;;;11.56;100.00
12879;BME280;20617;49.476;10.986;2023-03-14T08:25:58;96346.44;;;11.60;100.00
12879;BME280;20617;49.476;10.986;2023-03-14T08:28:03;96338.59;;;11.60;100.00
12879;BME280;20617;49.476;10.986;2023-03-14T08:30:13;96346.69;;;11.68;100.00
12879;BME280;20617;49.476;10.986;2023-03-14T08:32:19;96349.63;;;11.75;100.00
12879;BME280;20617;49.476;10.986;2023-03-14T08:34:25;96339.44;;;11.83;100.00
12879;BME280;20617;49.476;10.986;2023-03-14T08:36:30;96337.44;;;11.98;100.00
12879;BME280;20617;49.476;10.986;2023-03-14T08:38:35;96337.69;;;12.06;100.00
12879;BME280;20617;49.476;10.986;2023-03-14T08:40:40;96330.31;;;12.11;100.00
12879;BME280;20617;49.476;10.986;2023-03-14T08:42:45;96332.59;;;12.16;100.00
12879;BME280;20617;49.476;10.986;2023-03-14T08:44:50;96334.06;;;12.30;100.00
12879;BME280;20617;49.476;10.986;2023-03-14T08:46:57;96321.94;;;12.51;100.00
12879;BME280;20617;49.476;10.986;2023-03-14T08:49:03;96312.78;;;12.57;100.00
12879;BME280;20617;49.476;10.986;2023-03-14T08:51:08;96310.81;;;12.70;100.00
12879;BME280;20617;49.476;10.986;2023-03-14T08:53:14;96310.31;;;12.76;100.00
12879;BME280;20617;49.476;10.986;2023-03-14T08:55:19;96304.31;;;12.85;100.00
12879;BME280;20617;49.476;10.986;2023-03-14T08:57:24;96292.13;;;12.86;100.00
12879;BME280;20617;49.476;10.986;2023-03-14T08:59:30;96295.28;;;12.89;100.00
12879;BME280;20617;49.476;10.986;2023-03-14T09:01:35;96303.84;;;12.91;100.00
12879;BME280;20617;49.476;10.986;2023-03-14T09:03:42;96291.50;;;12.82;100.00
12879;BME280;20617;49.476;10.986;2023-03-14T09:05:48;96301.41;;;12.79;100.00
12879;BME280;20617;49.476;10.986;2023-03-14T09:07:52;96287.97;;;12.83;100.00
12879;BME280;20617;49.476;10.986;2023-03-14T09:09:57;96289.09;;;12.90;100.00
12879;BME280;20617;49.476;10.986;2023-03-14T09:12:03;96282.25;;;12.89;100.00
12879;BME280;20617;49.476;10.986;2023-03-14T09:14:08;96290.69;;;13.03;100.00
12879;BME280;20617;49.476;10.986;2023-03-14T09:16:13;96288.84;;;13.14;100.00
12879;BME280;20617;49.476;10.986;2023-03-14T09:18:18;96285.53;;;13.33;100.00
12879;BME280;20617;49.476;10.986;2023-03-14T09:20:26;96273.44;;;13.32;100.00
12879;BME280;20617;49.476;10.986;2023-03-14T09:22:32;96265.59;;;13.32;100.00
12879;BME280;20617;49.476;10.986;2023-03-14T09:24:39;96273.47;;;13.42;100.00
12879;BME280;20617;49.476;10.986;2023-03-14T09:26:44;96260.72;;;13.49;100.00
12879;BME280;20617;49.476;10.986;2023-03-14T09:28:49;96263.38;;;13.58;100.00
12879;BME280;20617;49.476;10.986;2023-03-14T09:30:58;96267.22;;;13.64;100.00
12879;BME280;20617;49.476;10.986;2023-03-14T09:33:09;96266.41;;;13.64;100.00
12879;BME280;20617;49.476;10.986;2023-03-14T09:35:14;96261.88;;;13.66;100.00
12879;BME280;20617;49.476;10.986;2023-03-14T09:37:22;96261.50;;;13.70;100.00
12879;BME280;20617;49.476;10.986;2023-03-14T09:39:26;96274.41;;;13.62;100.00
12879;BME280;20617;49.476;10.986;2023-03-14T09:41:35;96265.13;;;13.58;100.00
12879;BME280;20617;49.476;10.986;2023-03-14T09:43:43;96265.09;;;13.39;100.00
12879;BME280;20617;49.476;10.986;2023-03-14T09:45:53;96266.63;;;13.41;100.00
12879;BME280;20617;49.476;10.986;2023-03-14T09:47:58;96269.31;;;13.30;100.00
12879;BME280;20617;49.476;10.986;2023-03-14T09:50:05;96273.31;;;13.34;100.00
12879;BME280;20617;49.476;10.986;2023-03-14T09:52:13;96270.72;;;13.44;100.00
12879;BME280;20617;49.476;10.986;2023-03-14T09:54:30;96270.63;;;13.55;100.00
12879;BME280;20617;49.476;10.986;2023-03-14T09:56:37;96279.63;;;13.31;100.00
12879;BME280;20617;49.476;10.986;2023-03-14T09:58:45;96274.13;;;13.34;100.00
12879;BME280;20617;49.476;10.986;2023-03-14T10:00:54;96276.75;;;12.93;100.00
12879;BME280;20617;49.476;10.986;2023-03-14T10:03:19;96272.03;;;13.07;100.00
12879;BME280;20617;49.476;10.986;2023-03-14T10:05:26;96268.66;;;13.17;100.00
12879;BME280;20617;49.476;10.986;2023-03-14T10:07:32;96262.72;;;13.14;100.00
12879;BME280;20617;49.476;10.986;2023-03-14T10:09:40;96260.63;;;13.08;100.00
12879;BME280;20617;49.476;10.986;2023-03-14T10:11:45;96257.63;;;13.13;100.00
12879;BME280;20617;49.476;10.986;2023-03-14T10:14:02;96258.16;;;13.28;100.00
12879;BME280;20617;49.476;10.986;2023-03-14T10:16:08;96259.41;;;13.33;100.00
12879;BME280;20617;49.476;10.986;2023-03-14T10:18:14;96264.00;;;13.41;100.00
12879;BME280;20617;49.476;10.986;2023-03-14T10:20:31;96268.53;;;13.39;100.00
12879;BME280;20617;49.476;10.986;2023-03-14T10:22:39;96261.22;;;13.33;100.00
12879;BME280;20617;49.476;10.986;2023-03-14T10:24:51;96262.72;;;13.35;100.00
12879;BME280;20617;49.476;10.986;2023-03-14T10:26:59;96265.47;;;13.34;100.00
12879;BME280;20617;49.476;10.986;2023-03-14T10:29:09;96259.44;;;13.43;100.00
12879;BME280;20617;49.476;10.986;2023-03-14T10:31:15;96247.44;;;13.62;100.00
12879;BME280;20617;49.476;10.986;2023-03-14T10:33:22;96245.50;;;13.64;100.00
12879;BME280;20617;49.476;10.986;2023-03-14T10:35:27;96243.22;;;13.49;100.00
12879;BME280;20617;49.476;10.986;2023-03-14T10:37:48;96244.09;;;13.59;100.00
12879;BME280;20617;49.476;10.986;2023-03-14T10:39:59;96241.59;;;13.48;100.00
12879;BME280;20617;49.476;10.986;2023-03-14T10:42:15;96248.78;;;13.56;100.00
12879;BME280;20617;49.476;10.986;2023-03-14T10:44:23;96241.88;;;13.55;100.00
12879;BME280;20617;49.476;10.986;2023-03-14T10:46:31;96248.47;;;13.49;100.00
12879;BME280;20617;49.476;10.986;2023-03-14T10:48:55;96249.00;;;13.43;100.00
12879;BME280;20617;49.476;10.986;2023-03-14T10:51:05;96258.63;;;13.43;100.00
12879;BME280;20617;49.476;10.986;2023-03-14T10:53:11;96258.63;;;13.22;100.00
12879;BME280;20617;49.476;10.986;2023-03-14T10:55:18;96261.22;;;13.12;100.00
12879;BME280;20617;49.476;10.986;2023-03-14T10:57:23;96261.03;;;13.04;100.00
12879;BME280;20617;49.476;10.986;2023-03-14T10:59:34;96264.88;;;12.88;100.00
12879;BME280;20617;49.476;10.986;2023-03-14T11:01:42;96273.91;;;12.75;100.00
12879;BME280;20617;49.476;10.986;2023-03-14T11:03:53;96282.53;;;12.75;100.00
12879;BME280;20617;49.476;10.986;2023-03-14T11:06:06;96287.44;;;12.68;100.00
12879;BME280;20617;49.476;10.986;2023-03-14T11:08:20;96281.19;;;12.60;100.00
12879;BME280;20617;49.476;10.986;2023-03-14T11:10:32;96283.72;;;12.71;100.00